Time;durP1;ratioP1;P1;durP2;ratioP2;P2;SDS_P1;SDS_P2;PMS_P1;PMS_P2;Temp;Humidity;BMP_temperature;BMP_pressure;BME280_temperature;BME280_humidity;BME280_pressure;Samples;Min_cycle;Max_cycle;Signal;HPM_P1;HPM_P2
2024/01/14 00:01:20;;;;;;;17.40;11.33;;;;;;;;;;780426;179;919501;-69
2024/01/14 00:03:46;;;;;;;16.20;10.80;;;;;;;;;;774074;179;919164;-69
2024/01/14 00:06:12;;;;;;;18.67;10.98;;;;;;;;;;775848;180;916831;-69
2024/01/14 00:08:38;;;;;;;18.03;11.37;;;;;;;;;;779311;180;919181;-69
2024/01/14 00:11:04;;;;;;;17.17;10.97;;;;;;;;;;775754;180;920076;-69
2024/01/14 00:13:30;;;;;;;17.00;10.70;;;;;;;;;;774830;180;919302;-69
2024/01/14 00:15:55;;;;;;;16.83;10.13;;;;;;;;;;776703;180;919255;-69
2024/01/14 00:18:21;;;;;;;14.73;10.68;;;;;;;;;;776141;180;1020144;-69
2024/01/14 00:20:47;;;;;;;16.70;11.90;;;;;;;;;;774576;179;919818;-69
2024/01/14 00:23:13;;;;;;;15.50;9.20;;;;;;;;;;775227;179;918931;-68
2024/01/14 00:25:39;;;;;;;13.70;8.80;;;;;;;;;;781794;180;917121;-70
2024/01/14 00:28:05;;;;;;;17.57;9.33;;;;;;;;;;761796;180;1018473;-69
2024/01/14 00:30:31;;;;;;;11.77;6.57;;;;;;;;;;774492;180;919201;-69
2024/01/14 00:32:57;;;;;;;20.27;10.77;;;;;;;;;;780687;180;918870;-69
2024/01/14 00:35:22;;;;;;;18.43;10.27;;;;;;;;;;773781;179;915348;-69
2024/01/14 00:37:48;;;;;;;16.47;10.10;;;;;;;;;;776550;180;915998;-69
2024/01/14 00:40:14;;;;;;;23.13;11.30;;;;;;;;;;780838;179;916658;-69
2024/01/14 00:42:40;;;;;;;14.30;11.03;;;;;;;;;;775809;179;915825;-69
2024/01/14 00:45:06;;;;;;;17.80;11.57;;;;;;;;;;771441;180;919199;-69
2024/01/14 00:47:32;;;;;;;18.13;10.80;;;;;;;;;;769008;180;918963;-69
2024/01/14 00:49:58;;;;;;;22.33;12.00;;;;;;;;;;779440;178;919064;-69
2024/01/14 00:52:24;;;;;;;20.20;12.30;;;;;;;;;;775572;179;919283;-70
2024/01/14 00:54:49;;;;;;;25.30;11.05;;;;;;;;;;775515;179;928537;-68
2024/01/14 00:57:15;;;;;;;22.43;11.40;;;;;;;;;;776750;179;918238;-69
2024/01/14 00:59:41;;;;;;;20.77;11.30;;;;;;;;;;775412;179;933524;-70
2024/01/14 01:02:07;;;;;;;22.10;11.90;;;;;;;;;;770831;180;920006;-69
2024/01/14 01:04:33;;;;;;;19.20;12.40;;;;;;;;;;779637;180;1021332;-69
2024/01/14 01:06:59;;;;;;;21.53;12.77;;;;;;;;;;775566;179;921600;-69
2024/01/14 01:09:24;;;;;;;19.00;12.20;;;;;;;;;;774203;180;919364;-69
2024/01/14 01:11:50;;;;;;;19.40;12.57;;;;;;;;;;776968;179;916599;-70
2024/01/14 01:14:16;;;;;;;18.23;11.37;;;;;;;;;;767391;179;918737;-69
2024/01/14 01:16:42;;;;;;;19.40;11.60;;;;;;;;;;764831;180;920521;-68
2024/01/14 01:19:08;;;;;;;19.80;11.73;;;;;;;;;;777441;179;919682;-70
2024/01/14 01:21:34;;;;;;;19.43;11.90;;;;;;;;;;786448;178;918650;-69
2024/01/14 01:23:59;;;;;;;21.63;12.63;;;;;;;;;;775080;179;917643;-68
2024/01/14 01:26:25;;;;;;;21.13;11.30;;;;;;;;;;774543;179;919113;-69
2024/01/14 01:28:51;;;;;;;20.60;13.13;;;;;;;;;;777478;180;920170;-69
2024/01/14 01:31:17;;;;;;;18.80;12.07;;;;;;;;;;775282;179;920866;-70
2024/01/14 01:33:44;;;;;;;18.10;13.10;;;;;;;;;;773830;177;917971;-69
2024/01/14 01:36:09;;;;;;;18.17;10.55;;;;;;;;;;765971;180;917920;-69
2024/01/14 01:38:35;;;;;;;19.60;12.40;;;;;;;;;;765665;180;918509;-69
2024/01/14 01:41:00;;;;;;;17.23;12.15;;;;;;;;;;771884;179;961159;-70
2024/01/14 01:43:27;;;;;;;16.73;9.90;;;;;;;;;;778521;180;925674;-69
2024/01/14 01:45:53;;;;;;;22.67;11.67;;;;;;;;;;775613;180;918683;-70
2024/01/14 01:48:19;;;;;;;20.93;12.10;;;;;;;;;;766595;180;919194;-70
2024/01/14 01:50:44;;;;;;;18.27;11.30;;;;;;;;;;773176;180;920345;-70
2024/01/14 01:53:10;;;;;;;19.43;12.33;;;;;;;;;;780168;180;918895;-70
2024/01/14 01:55:36;;;;;;;19.92;12.75;;;;;;;;;;771266;180;918611;-70
2024/01/14 01:58:02;;;;;;;16.87;10.43;;;;;;;;;;773308;179;920506;-70
2024/01/14 02:00:28;;;;;;;18.50;12.07;;;;;;;;;;782375;179;1018285;-69
2024/01/14 02:02:54;;;;;;;17.60;12.17;;;;;;;;;;779052;179;994027;-70
2024/01/14 02:05:19;;;;;;;21.33;12.40;;;;;;;;;;777154;178;1021778;-69
2024/01/14 02:07:45;;;;;;;18.57;11.00;;;;;;;;;;780143;178;919201;-69
2024/01/14 02:10:11;;;;;;;19.33;12.13;;;;;;;;;;761896;180;919394;-70
2024/01/14 02:12:37;;;;;;;17.57;10.47;;;;;;;;;;766676;179;919202;-68
2024/01/14 02:15:03;;;;;;;21.00;10.50;;;;;;;;;;775132;179;923554;-69
2024/01/14 02:17:29;;;;;;;14.87;9.60;;;;;;;;;;770289;180;944725;-68
2024/01/14 02:19:55;;;;;;;21.40;12.70;;;;;;;;;;775379;179;920279;-69
2024/01/14 02:22:23;;;;;;;19.70;12.80;;;;;;;;;;776416;180;919300;-69
2024/01/14 02:24:48;;;;;;;18.07;10.47;;;;;;;;;;773949;181;917655;-69
2024/01/14 02:27:14;;;;;;;22.65;11.55;;;;;;;;;;774150;180;920590;-70
2024/01/14 02:29:40;;;;;;;21.40;12.50;;;;;;;;;;770574;178;917296;-69
2024/01/14 02:32:06;;;;;;;18.47;10.50;;;;;;;;;;766701;181;919214;-69
2024/01/14 02:34:35;;;;;;;14.93;9.70;;;;;;;;;;774896;179;919096;-68
2024/01/14 02:37:00;;;;;;;21.23;12.63;;;;;;;;;;766425;180;919067;-69
2024/01/14 02:39:24;;;;;;;18.33;11.47;;;;;;;;;;775936;180;919198;-69
2024/01/14 02:41:50;;;;;;;21.33;11.00;;;;;;;;;;772082;179;952166;-69
2024/01/14 02:44:15;;;;;;;19.13;11.33;;;;;;;;;;766614;180;920332;-69
2024/01/14 02:46:41;;;;;;;18.57;11.30;;;;;;;;;;775009;180;920519;-68
2024/01/14 02:49:07;;;;;;;20.50;11.57;;;;;;;;;;773931;180;919372;-68
2024/01/14 02:51:33;;;;;;;18.92;10.60;;;;;;;;;;772990;179;919777;-69
2024/01/14 02:54:01;;;;;;;18.80;10.80;;;;;;;;;;772967;180;911293;-68
2024/01/14 02:56:25;;;;;;;17.07;10.10;;;;;;;;;;779752;180;918197;-68
2024/01/14 02:58:51;;;;;;;17.37;11.10;;;;;;;;;;776935;180;917894;-70
2024/01/14 03:01:16;;;;;;;16.17;10.13;;;;;;;;;;776585;179;1020709;-68
2024/01/14 03:03:43;;;;;;;16.23;10.27;;;;;;;;;;773793;179;919050;-68
2024/01/14 03:06:08;;;;;;;20.07;11.03;;;;;;;;;;777969;177;918013;-69
2024/01/14 03:08:34;;;;;;;21.33;11.23;;;;;;;;;;771618;180;919245;-69
2024/01/14 03:11:00;;;;;;;17.80;11.80;;;;;;;;;;770122;180;919296;-68
2024/01/14 03:13:27;;;;;;;17.97;11.17;;;;;;;;;;782599;179;918841;-69
2024/01/14 03:15:52;;;;;;;16.20;11.10;;;;;;;;;;778095;180;918485;-68
2024/01/14 03:18:18;;;;;;;19.20;11.47;;;;;;;;;;772837;180;918790;-68
2024/01/14 03:20:44;;;;;;;18.62;10.57;;;;;;;;;;782234;179;919077;-69
2024/01/14 03:23:09;;;;;;;18.93;11.00;;;;;;;;;;774131;180;920125;-68
2024/01/14 03:25:35;;;;;;;18.50;11.93;;;;;;;;;;763796;183;919088;-69
2024/01/14 03:28:01;;;;;;;18.43;10.90;;;;;;;;;;770124;180;714599;-69
2024/01/14 03:30:27;;;;;;;21.60;11.90;;;;;;;;;;773952;180;919656;-69
2024/01/14 03:32:53;;;;;;;18.03;12.00;;;;;;;;;;772899;179;1014128;-69
2024/01/14 03:35:19;;;;;;;18.27;10.87;;;;;;;;;;775697;179;916900;-69
2024/01/14 03:37:44;;;;;;;18.73;10.70;;;;;;;;;;778856;179;915763;-70
2024/01/14 03:40:11;;;;;;;17.07;10.83;;;;;;;;;;775361;179;918476;-68
2024/01/14 03:42:37;;;;;;;19.37;10.27;;;;;;;;;;768318;180;1002941;-68
2024/01/14 03:45:03;;;;;;;21.53;10.70;;;;;;;;;;779134;180;917739;-69
2024/01/14 03:47:28;;;;;;;20.57;12.17;;;;;;;;;;772925;180;920092;-69
2024/01/14 03:49:54;;;;;;;22.37;11.77;;;;;;;;;;777957;180;984156;-68
2024/01/14 03:52:20;;;;;;;18.57;11.10;;;;;;;;;;782236;180;916842;-70
2024/01/14 03:54:46;;;;;;;19.70;9.70;;;;;;;;;;776860;180;917657;-69
2024/01/14 03:57:12;;;;;;;18.30;8.97;;;;;;;;;;766071;180;918353;-69
2024/01/14 03:59:38;;;;;;;20.00;12.03;;;;;;;;;;769917;180;918199;-68
2024/01/14 04:02:04;;;;;;;17.10;10.50;;;;;;;;;;771856;180;918967;-68
2024/01/14 04:04:29;;;;;;;18.93;10.73;;;;;;;;;;771699;180;1196556;-69
2024/01/14 04:06:55;;;;;;;22.17;12.53;;;;;;;;;;773819;179;918798;-69
2024/01/14 04:09:21;;;;;;;17.67;11.13;;;;;;;;;;781111;179;919380;-69
2024/01/14 04:11:47;;;;;;;17.27;10.93;;;;;;;;;;769941;179;926100;-68
2024/01/14 04:14:13;;;;;;;17.30;10.67;;;;;;;;;;772554;180;919318;-68
2024/01/14 04:16:39;;;;;;;14.33;9.43;;;;;;;;;;779551;180;918083;-68
2024/01/14 04:19:04;;;;;;;17.70;11.65;;;;;;;;;;772365;180;1022429;-69
2024/01/14 04:21:31;;;;;;;18.77;11.53;;;;;;;;;;771805;180;922961;-70
2024/01/14 04:23:58;;;;;;;18.57;13.40;;;;;;;;;;776135;178;1021152;-69
2024/01/14 04:26:22;;;;;;;20.73;10.87;;;;;;;;;;772094;178;919130;-69
2024/01/14 04:28:48;;;;;;;18.40;9.70;;;;;;;;;;774866;179;919522;-68
2024/01/14 04:31:14;;;;;;;20.23;10.50;;;;;;;;;;774436;180;985228;-68
2024/01/14 04:33:40;;;;;;;13.70;10.83;;;;;;;;;;769270;182;919207;-68
2024/01/14 04:36:06;;;;;;;21.20;9.90;;;;;;;;;;762797;179;919257;-69
2024/01/14 04:38:32;;;;;;;18.43;11.47;;;;;;;;;;769870;178;919751;-68
2024/01/14 04:40:57;;;;;;;21.27;11.23;;;;;;;;;;778403;180;918986;-69
2024/01/14 04:43:23;;;;;;;22.35;11.88;;;;;;;;;;770414;178;917567;-68
2024/01/14 04:45:49;;;;;;;18.00;11.83;;;;;;;;;;762696;180;918630;-69
2024/01/14 04:48:15;;;;;;;17.90;11.37;;;;;;;;;;779054;180;876025;-69
2024/01/14 04:50:41;;;;;;;18.20;11.20;;;;;;;;;;774197;179;919075;-69
2024/01/14 04:53:07;;;;;;;16.70;10.33;;;;;;;;;;773752;179;920827;-68
2024/01/14 04:55:33;;;;;;;21.37;12.55;;;;;;;;;;779321;179;918568;-68
2024/01/14 04:57:59;;;;;;;17.67;10.53;;;;;;;;;;779250;179;920735;-69
2024/01/14 05:00:25;;;;;;;23.07;11.23;;;;;;;;;;767401;180;919816;-69
2024/01/14 05:02:50;;;;;;;19.10;9.47;;;;;;;;;;775021;180;918488;-69
2024/01/14 05:05:16;;;;;;;16.00;9.63;;;;;;;;;;781738;180;919006;-69
2024/01/14 05:07:42;;;;;;;16.37;9.77;;;;;;;;;;771031;180;920930;-69
2024/01/14 05:10:08;;;;;;;20.10;11.57;;;;;;;;;;775039;179;916345;-68
2024/01/14 05:12:34;;;;;;;14.97;9.00;;;;;;;;;;778846;180;915707;-69
2024/01/14 05:15:00;;;;;;;16.67;9.87;;;;;;;;;;774794;180;919411;-68
2024/01/14 05:17:26;;;;;;;19.37;9.93;;;;;;;;;;775210;180;918828;-69
2024/01/14 05:19:52;;;;;;;18.57;10.30;;;;;;;;;;778726;180;919400;-69
2024/01/14 05:22:18;;;;;;;22.43;10.03;;;;;;;;;;772073;180;926746;-69
2024/01/14 05:24:44;;;;;;;14.70;8.80;;;;;;;;;;771081;180;1224718;-69
2024/01/14 05:27:11;;;;;;;18.03;8.80;;;;;;;;;;771006;180;919991;-68
2024/01/14 05:29:42;;;;;;;13.07;8.90;;;;;;;;;;767571;181;920642;-68
2024/01/14 05:32:08;;;;;;;14.90;9.67;;;;;;;;;;770341;180;1021219;-68
2024/01/14 05:34:33;;;;;;;18.10;9.80;;;;;;;;;;778220;179;918535;-68
2024/01/14 05:37:01;;;;;;;16.50;8.70;;;;;;;;;;782431;177;916724;-69
2024/01/14 05:39:25;;;;;;;16.20;9.30;;;;;;;;;;771685;179;915681;-68
2024/01/14 05:41:51;;;;;;;18.50;9.18;;;;;;;;;;776634;179;919440;-69
2024/01/14 05:44:17;;;;;;;14.90;8.00;;;;;;;;;;776928;179;941623;-70
2024/01/14 05:46:43;;;;;;;15.48;9.95;;;;;;;;;;763788;181;914493;-70
2024/01/14 05:49:08;;;;;;;17.50;10.70;;;;;;;;;;773362;178;1020803;-69
2024/01/14 05:51:34;;;;;;;15.45;9.90;;;;;;;;;;771308;180;919173;-68
2024/01/14 05:54:00;;;;;;;16.50;8.60;;;;;;;;;;778278;180;1022015;-68
2024/01/14 05:56:26;;;;;;;17.73;8.57;;;;;;;;;;773128;179;919254;-69
2024/01/14 05:58:52;;;;;;;15.83;10.00;;;;;;;;;;772616;180;918706;-69
2024/01/14 06:01:18;;;;;;;14.63;9.00;;;;;;;;;;765984;182;918869;-68
2024/01/14 06:03:43;;;;;;;16.07;9.40;;;;;;;;;;774596;179;919602;-68
2024/01/14 06:06:10;;;;;;;15.67;8.13;;;;;;;;;;770505;180;919987;-68
2024/01/14 06:08:35;;;;;;;21.60;10.73;;;;;;;;;;777242;179;917102;-69
2024/01/14 06:11:03;;;;;;;13.98;7.07;;;;;;;;;;768529;179;919962;-69
2024/01/14 06:13:27;;;;;;;15.37;10.43;;;;;;;;;;773059;179;915758;-68
2024/01/14 06:15:53;;;;;;;17.53;8.97;;;;;;;;;;774389;180;915553;-68
2024/01/14 06:18:19;;;;;;;15.37;8.47;;;;;;;;;;778694;180;918410;-68
2024/01/14 06:20:44;;;;;;;17.23;9.53;;;;;;;;;;761244;181;945227;-69
2024/01/14 06:23:10;;;;;;;14.50;8.77;;;;;;;;;;773321;180;920088;-68
2024/01/14 06:25:36;;;;;;;12.63;8.03;;;;;;;;;;774767;180;853359;-69
2024/01/14 06:28:02;;;;;;;16.13;10.20;;;;;;;;;;759264;182;918811;-69
2024/01/14 06:30:28;;;;;;;19.00;10.90;;;;;;;;;;772174;180;919609;-68
2024/01/14 06:32:55;;;;;;;14.68;8.68;;;;;;;;;;780842;180;919492;-69
2024/01/14 06:35:21;;;;;;;18.07;9.67;;;;;;;;;;767775;179;919129;-68
2024/01/14 06:37:46;;;;;;;16.50;8.77;;;;;;;;;;760769;182;924456;-69
2024/01/14 06:40:12;;;;;;;13.07;8.03;;;;;;;;;;773550;180;919145;-69
2024/01/14 06:42:38;;;;;;;13.67;8.30;;;;;;;;;;762801;181;919120;-68
2024/01/14 06:45:04;;;;;;;13.77;8.70;;;;;;;;;;752954;184;1022074;-69
2024/01/14 06:47:31;;;;;;;24.47;8.00;;;;;;;;;;758808;183;911071;-69
2024/01/14 06:49:56;;;;;;;14.90;8.53;;;;;;;;;;761463;183;915128;-69
2024/01/14 06:52:22;;;;;;;21.33;11.30;;;;;;;;;;777736;178;915359;-68
2024/01/14 06:54:49;;;;;;;14.90;8.93;;;;;;;;;;776665;179;916515;-69
2024/01/14 06:57:14;;;;;;;14.87;7.30;;;;;;;;;;781325;179;921913;-69
2024/01/14 06:59:42;;;;;;;13.90;8.33;;;;;;;;;;775095;180;914989;-71
2024/01/14 07:02:06;;;;;;;14.90;9.00;;;;;;;;;;774864;180;921773;-69
2024/01/14 07:04:32;;;;;;;18.73;10.40;;;;;;;;;;777546;179;920563;-68
2024/01/14 07:06:58;;;;;;;24.73;10.87;;;;;;;;;;772588;180;918155;-69
2024/01/14 07:09:24;;;;;;;20.20;9.03;;;;;;;;;;771675;179;919096;-69
2024/01/14 07:11:50;;;;;;;16.70;7.90;;;;;;;;;;771115;179;919478;-68
2024/01/14 07:14:16;;;;;;;16.47;8.60;;;;;;;;;;778816;180;920674;-69
2024/01/14 07:16:41;;;;;;;16.80;8.88;;;;;;;;;;770201;180;921719;-67
2024/01/14 07:19:07;;;;;;;14.13;9.43;;;;;;;;;;770573;179;914648;-69
2024/01/14 07:21:33;;;;;;;19.40;8.87;;;;;;;;;;768639;180;918305;-68
2024/01/14 07:23:59;;;;;;;18.47;9.80;;;;;;;;;;775028;180;919199;-68
2024/01/14 07:26:25;;;;;;;13.85;8.25;;;;;;;;;;773205;180;929780;-68
2024/01/14 07:28:53;;;;;;;15.20;7.90;;;;;;;;;;773472;179;919574;-68
2024/01/14 07:31:20;;;;;;;17.03;9.53;;;;;;;;;;779242;179;920357;-68
2024/01/14 07:33:44;;;;;;;14.90;9.00;;;;;;;;;;768326;180;919154;-68
2024/01/14 07:36:10;;;;;;;14.77;8.20;;;;;;;;;;774767;180;919692;-68
2024/01/14 07:38:36;;;;;;;18.27;9.60;;;;;;;;;;780480;180;1118050;-68
2024/01/14 07:41:02;;;;;;;15.50;8.37;;;;;;;;;;767393;179;921987;-68
2024/01/14 07:43:28;;;;;;;13.43;7.47;;;;;;;;;;776059;179;920909;-69
2024/01/14 07:45:54;;;;;;;13.00;8.17;;;;;;;;;;780426;179;920175;-69
2024/01/14 07:48:19;;;;;;;11.83;5.63;;;;;;;;;;772642;180;946610;-69
2024/01/14 07:50:45;;;;;;;17.10;7.97;;;;;;;;;;775604;180;922961;-68
2024/01/14 07:53:13;;;;;;;18.98;9.38;;;;;;;;;;778208;180;918823;-68
2024/01/14 07:55:37;;;;;;;14.10;8.07;;;;;;;;;;772881;180;919934;-67
2024/01/14 07:58:03;;;;;;;16.62;8.93;;;;;;;;;;777472;179;918709;-68
2024/01/14 08:00:29;;;;;;;14.67;9.77;;;;;;;;;;772951;179;919149;-68
2024/01/14 08:02:55;;;;;;;14.70;6.73;;;;;;;;;;779459;179;1019765;-67
2024/01/14 08:05:21;;;;;;;12.60;6.87;;;;;;;;;;777060;179;621381;-65
2024/01/14 08:07:47;;;;;;;18.33;7.60;;;;;;;;;;778863;179;623621;-67
2024/01/14 08:10:12;;;;;;;13.57;7.07;;;;;;;;;;784819;179;634090;-67
2024/01/14 08:12:38;;;;;;;11.07;6.20;;;;;;;;;;780933;179;627518;-66
2024/01/14 08:15:04;;;;;;;13.03;6.87;;;;;;;;;;777147;178;633682;-67
2024/01/14 08:17:30;;;;;;;11.83;6.80;;;;;;;;;;785930;180;633868;-68
2024/01/14 08:19:56;;;;;;;10.87;6.57;;;;;;;;;;778880;177;627149;-67
2024/01/14 08:22:22;;;;;;;14.73;7.23;;;;;;;;;;760572;183;654478;-67
2024/01/14 08:24:48;;;;;;;14.43;8.37;;;;;;;;;;773960;179;725276;-67
2024/01/14 08:27:13;;;;;;;13.37;7.80;;;;;;;;;;776809;179;618727;-68
2024/01/14 08:29:39;;;;;;;15.65;7.30;;;;;;;;;;771288;180;639606;-67
2024/01/14 08:32:05;;;;;;;10.07;5.80;;;;;;;;;;776140;180;626658;-68
2024/01/14 08:34:31;;;;;;;16.50;8.53;;;;;;;;;;781344;180;630600;-67
2024/01/14 08:36:57;;;;;;;10.37;7.20;;;;;;;;;;770563;177;919369;-67
2024/01/14 08:39:23;;;;;;;11.90;7.50;;;;;;;;;;760939;179;918861;-67
2024/01/14 08:41:48;;;;;;;13.70;8.03;;;;;;;;;;774217;180;1020936;-67
2024/01/14 08:44:14;;;;;;;12.20;7.15;;;;;;;;;;776528;180;919083;-68
2024/01/14 08:46:40;;;;;;;14.13;7.47;;;;;;;;;;772642;180;919435;-67
2024/01/14 08:49:06;;;;;;;13.00;7.87;;;;;;;;;;774142;180;883867;-67
2024/01/14 08:51:32;;;;;;;13.33;8.00;;;;;;;;;;771063;180;869316;-67
2024/01/14 08:54:00;;;;;;;7.50;4.97;;;;;;;;;;772150;180;919029;-67
2024/01/14 08:56:24;;;;;;;16.57;7.43;;;;;;;;;;770116;178;919552;-67
2024/01/14 08:58:49;;;;;;;10.50;6.77;;;;;;;;;;774534;180;918820;-67
2024/01/14 09:01:17;;;;;;;11.33;6.53;;;;;;;;;;769402;180;920074;-67
2024/01/14 09:03:41;;;;;;;13.03;8.17;;;;;;;;;;774652;179;918673;-67
2024/01/14 09:06:07;;;;;;;6.77;5.33;;;;;;;;;;780115;179;918331;-68
2024/01/14 09:08:33;;;;;;;9.27;5.40;;;;;;;;;;770746;180;918924;-68
2024/01/14 09:10:59;;;;;;;12.30;6.40;;;;;;;;;;774365;179;916520;-67
2024/01/14 09:13:25;;;;;;;14.13;6.47;;;;;;;;;;779242;179;914654;-68
2024/01/14 09:15:51;;;;;;;10.40;5.87;;;;;;;;;;774515;179;1048624;-68
2024/01/14 09:18:16;;;;;;;9.47;5.60;;;;;;;;;;773422;179;919545;-68
2024/01/14 09:20:43;;;;;;;11.10;6.28;;;;;;;;;;776042;180;1022831;-68
2024/01/14 09:23:09;;;;;;;13.53;7.43;;;;;;;;;;770468;179;916695;-68
2024/01/14 09:25:35;;;;;;;11.93;6.43;;;;;;;;;;773452;180;918879;-68
2024/01/14 09:28:00;;;;;;;11.40;6.63;;;;;;;;;;771988;180;919359;-67
2024/01/14 09:30:26;;;;;;;9.03;6.07;;;;;;;;;;776435;179;919257;-67
2024/01/14 09:32:52;;;;;;;12.93;8.20;;;;;;;;;;758109;181;918987;-68
2024/01/14 09:35:18;;;;;;;13.87;7.23;;;;;;;;;;772386;179;1125660;-68
2024/01/14 09:37:44;;;;;;;14.13;6.50;;;;;;;;;;775381;180;916992;-68
2024/01/14 09:40:10;;;;;;;12.60;6.83;;;;;;;;;;773465;180;912729;-68
2024/01/14 09:42:36;;;;;;;10.33;4.60;;;;;;;;;;769511;180;915449;-68
2024/01/14 09:45:02;;;;;;;16.30;8.27;;;;;;;;;;772636;179;914617;-68
2024/01/14 09:47:28;;;;;;;11.10;5.23;;;;;;;;;;770455;180;932221;-68
2024/01/14 09:49:53;;;;;;;14.00;7.27;;;;;;;;;;772889;180;922170;-68
2024/01/14 09:52:20;;;;;;;11.43;7.43;;;;;;;;;;774906;180;916222;-68
2024/01/14 09:54:46;;;;;;;11.60;5.10;;;;;;;;;;767238;181;916284;-68
2024/01/14 09:57:12;;;;;;;5.80;3.83;;;;;;;;;;768564;179;915166;-68
2024/01/14 09:59:37;;;;;;;16.83;7.47;;;;;;;;;;773862;179;919181;-68
2024/01/14 10:02:03;;;;;;;20.70;8.63;;;;;;;;;;775587;180;918455;-68
2024/01/14 10:04:29;;;;;;;14.90;7.93;;;;;;;;;;772944;180;917930;-68
2024/01/14 10:06:55;;;;;;;16.13;5.73;;;;;;;;;;769039;177;955421;-68
2024/01/14 10:09:23;;;;;;;13.90;9.47;;;;;;;;;;768441;180;920153;-67
2024/01/14 10:11:47;;;;;;;16.27;7.80;;;;;;;;;;765571;180;919790;-69
2024/01/14 10:14:13;;;;;;;10.73;6.17;;;;;;;;;;770710;179;919935;-68
2024/01/14 10:16:39;;;;;;;19.33;6.85;;;;;;;;;;777564;180;918732;-68
2024/01/14 10:19:06;;;;;;;11.90;7.50;;;;;;;;;;776076;180;919486;-69
2024/01/14 10:21:31;;;;;;;15.83;8.50;;;;;;;;;;770802;179;919377;-68
2024/01/14 10:23:56;;;;;;;18.73;8.60;;;;;;;;;;775247;179;920512;-68
2024/01/14 10:26:23;;;;;;;11.93;5.70;;;;;;;;;;777329;179;917996;-68
2024/01/14 10:28:48;;;;;;;15.10;6.23;;;;;;;;;;773631;179;918805;-68
2024/01/14 10:31:14;;;;;;;13.43;6.67;;;;;;;;;;774307;179;918680;-68
2024/01/14 10:33:40;;;;;;;15.15;7.70;;;;;;;;;;778564;179;815903;-68
2024/01/14 10:36:07;;;;;;;12.50;7.07;;;;;;;;;;776342;179;919498;-67
2024/01/14 10:38:32;;;;;;;11.80;7.10;;;;;;;;;;775427;179;921504;-67
2024/01/14 10:40:58;;;;;;;11.73;7.30;;;;;;;;;;781041;179;917800;-68
2024/01/14 10:43:26;;;;;;;15.43;8.03;;;;;;;;;;774405;179;922601;-68
2024/01/14 10:45:52;;;;;;;14.63;7.40;;;;;;;;;;774862;179;919073;-69
2024/01/14 10:48:16;;;;;;;12.60;7.97;;;;;;;;;;775289;178;919990;-68
2024/01/14 10:50:42;;;;;;;12.00;6.23;;;;;;;;;;774602;180;918121;-68
2024/01/14 10:53:08;;;;;;;14.17;7.97;;;;;;;;;;767555;180;919269;-69
2024/01/14 10:55:34;;;;;;;12.75;8.13;;;;;;;;;;775806;179;920556;-69
2024/01/14 10:58:00;;;;;;;13.90;7.30;;;;;;;;;;772795;180;918703;-69
2024/01/14 11:00:25;;;;;;;14.45;7.03;;;;;;;;;;772219;180;919254;-68
2024/01/14 11:02:51;;;;;;;14.27;8.23;;;;;;;;;;772172;180;1020832;-69
2024/01/14 11:05:17;;;;;;;13.98;7.03;;;;;;;;;;777094;180;919734;-69
2024/01/14 11:07:43;;;;;;;12.17;6.53;;;;;;;;;;769184;179;919256;-68
2024/01/14 11:10:10;;;;;;;13.13;7.83;;;;;;;;;;763509;180;919213;-69
2024/01/14 11:12:40;;;;;;;12.90;8.10;;;;;;;;;;772248;180;920318;-69
2024/01/14 11:15:07;;;;;;;11.50;6.47;;;;;;;;;;777658;179;918257;-68
2024/01/14 11:17:33;;;;;;;14.00;7.33;;;;;;;;;;771722;180;919592;-69
2024/01/14 11:19:59;;;;;;;12.07;7.20;;;;;;;;;;771067;180;919441;-68
2024/01/14 11:22:26;;;;;;;14.70;7.33;;;;;;;;;;777382;180;919304;-69
2024/01/14 11:24:51;;;;;;;16.37;8.07;;;;;;;;;;774522;180;918432;-69
2024/01/14 11:27:16;;;;;;;14.07;7.30;;;;;;;;;;772877;180;941279;-69
2024/01/14 11:29:43;;;;;;;14.45;7.22;;;;;;;;;;772900;180;938327;-68
2024/01/14 11:32:09;;;;;;;10.50;6.77;;;;;;;;;;770998;180;896872;-69
2024/01/14 11:34:41;;;;;;;10.00;6.60;;;;;;;;;;779775;178;962568;-68
2024/01/14 11:37:07;;;;;;;15.90;8.73;;;;;;;;;;773575;179;920711;-69
2024/01/14 11:39:33;;;;;;;9.03;6.60;;;;;;;;;;780617;179;919654;-68
2024/01/14 11:41:59;;;;;;;13.60;7.40;;;;;;;;;;775176;176;918751;-69
2024/01/14 11:44:28;;;;;;;14.33;7.60;;;;;;;;;;774606;179;917911;-72
2024/01/14 11:46:54;;;;;;;14.67;8.33;;;;;;;;;;775985;179;914336;-70
2024/01/14 11:49:20;;;;;;;15.27;7.80;;;;;;;;;;779469;180;919318;-69
2024/01/14 11:51:50;;;;;;;10.10;6.17;;;;;;;;;;774540;179;917724;-69
2024/01/14 11:54:16;;;;;;;14.13;7.90;;;;;;;;;;771296;180;1226010;-69
2024/01/14 11:56:42;;;;;;;12.23;7.23;;;;;;;;;;777726;180;918903;-69
2024/01/14 11:59:08;;;;;;;14.77;7.27;;;;;;;;;;772380;180;919251;-70
2024/01/14 12:01:34;;;;;;;10.93;7.27;;;;;;;;;;772939;179;919935;-69
2024/01/14 12:04:00;;;;;;;14.20;7.40;;;;;;;;;;772207;179;919684;-69
2024/01/14 12:06:26;;;;;;;10.40;6.60;;;;;;;;;;767639;180;918687;-69
2024/01/14 12:09:07;;;;;;;16.43;9.20;;;;;;;;;;767920;179;919670;-69
2024/01/14 12:11:32;;;;;;;11.80;6.80;;;;;;;;;;773341;180;919174;-68
2024/01/14 12:13:58;;;;;;;10.53;6.57;;;;;;;;;;773461;180;916626;-69
2024/01/14 12:16:24;;;;;;;13.43;7.80;;;;;;;;;;781450;180;640545;-70
2024/01/14 12:18:50;;;;;;;17.30;7.80;;;;;;;;;;776816;180;655361;-68
2024/01/14 12:21:17;;;;;;;14.73;7.70;;;;;;;;;;775033;179;915555;-69
2024/01/14 12:23:42;;;;;;;13.10;7.40;;;;;;;;;;778656;180;917364;-67
2024/01/14 12:26:08;;;;;;;15.30;8.20;;;;;;;;;;764583;178;941353;-67
2024/01/14 12:28:34;;;;;;;14.83;6.90;;;;;;;;;;768724;180;967507;-68
2024/01/14 12:31:00;;;;;;;14.87;7.93;;;;;;;;;;779300;179;906058;-69
2024/01/14 12:33:26;;;;;;;12.07;7.03;;;;;;;;;;760593;180;920342;-69
2024/01/14 12:35:52;;;;;;;10.77;6.47;;;;;;;;;;763633;179;910616;-68
2024/01/14 12:38:18;;;;;;;9.10;7.10;;;;;;;;;;774188;179;919043;-69
2024/01/14 12:40:43;;;;;;;11.93;6.80;;;;;;;;;;779030;179;932721;-69
2024/01/14 12:43:09;;;;;;;17.17;7.87;;;;;;;;;;775573;179;919251;-68
2024/01/14 12:45:35;;;;;;;13.73;7.65;;;;;;;;;;776439;178;918494;-69
2024/01/14 12:48:01;;;;;;;9.83;6.90;;;;;;;;;;781041;179;899078;-69
2024/01/14 12:50:27;;;;;;;10.77;6.53;;;;;;;;;;778283;179;915997;-69
2024/01/14 12:52:57;;;;;;;10.03;5.90;;;;;;;;;;769793;178;932509;-68
2024/01/14 12:55:23;;;;;;;18.73;6.68;;;;;;;;;;774556;179;922576;-69
2024/01/14 12:57:48;;;;;;;11.63;5.93;;;;;;;;;;774804;179;919534;-69
2024/01/14 13:00:14;;;;;;;11.47;6.80;;;;;;;;;;772101;179;922574;-69
2024/01/14 13:02:40;;;;;;;12.87;7.40;;;;;;;;;;775520;178;917998;-69
2024/01/14 13:05:06;;;;;;;10.63;6.63;;;;;;;;;;777348;180;688469;-69
2024/01/14 13:07:32;;;;;;;11.00;6.70;;;;;;;;;;764507;180;635436;-69
2024/01/14 13:09:58;;;;;;;12.17;6.97;;;;;;;;;;777844;179;623778;-69
2024/01/14 13:12:24;;;;;;;10.60;6.87;;;;;;;;;;781832;179;618129;-69
2024/01/14 13:14:49;;;;;;;12.75;6.65;;;;;;;;;;775801;179;914297;-70
2024/01/14 13:17:15;;;;;;;16.60;6.93;;;;;;;;;;775938;179;612852;-69
2024/01/14 13:19:41;;;;;;;9.73;5.87;;;;;;;;;;781241;179;616477;-70
2024/01/14 13:22:07;;;;;;;12.50;6.77;;;;;;;;;;777163;177;637437;-70
2024/01/14 13:24:33;;;;;;;11.70;7.10;;;;;;;;;;767566;179;641931;-70
2024/01/14 13:26:59;;;;;;;12.27;6.00;;;;;;;;;;774599;180;635294;-69
2024/01/14 13:29:24;;;;;;;14.47;7.50;;;;;;;;;;782079;180;643245;-69
2024/01/14 13:31:50;;;;;;;15.27;7.67;;;;;;;;;;757756;182;919493;-69
2024/01/14 13:34:16;;;;;;;12.20;7.27;;;;;;;;;;770637;179;918465;-69
2024/01/14 13:36:42;;;;;;;15.87;7.40;;;;;;;;;;777025;179;922740;-69
2024/01/14 13:39:08;;;;;;;10.40;5.97;;;;;;;;;;771129;180;1019142;-68
2024/01/14 13:41:34;;;;;;;10.37;6.73;;;;;;;;;;773383;179;918298;-69
2024/01/14 13:44:00;;;;;;;13.03;6.57;;;;;;;;;;778372;180;921273;-68
2024/01/14 13:46:26;;;;;;;11.53;7.00;;;;;;;;;;775734;180;918948;-69
2024/01/14 13:48:52;;;;;;;10.70;6.10;;;;;;;;;;770596;180;1029004;-68
2024/01/14 13:51:19;;;;;;;8.77;6.27;;;;;;;;;;777792;180;916689;-70
2024/01/14 13:53:43;;;;;;;9.37;6.40;;;;;;;;;;769392;180;1020821;-70
2024/01/14 13:56:09;;;;;;;11.05;6.95;;;;;;;;;;774748;178;918177;-68
2024/01/14 13:58:35;;;;;;;13.37;6.33;;;;;;;;;;774916;179;968771;-69
2024/01/14 14:01:01;;;;;;;12.30;7.13;;;;;;;;;;779015;179;919022;-68
2024/01/14 14:03:28;;;;;;;9.83;5.90;;;;;;;;;;771630;179;919027;-68